Time;durP1;ratioP1;P1;durP2;ratioP2;P2;SDS_P1;SDS_P2;PMS_P1;PMS_P2;Temp;Humidity;BMP_temperature;BMP_pressure;BME280_temperature;BME280_humidity;BME280_pressure;Samples;Min_cycle;Max_cycle;Signal;HPM_P1;HPM_P2
2022/09/23 00:01:01;;;;;;;;;;;1.20;99.90;;;;;;5092236;27;20327;-55
2022/09/23 00:03:44;;;;;;;;;;;1.30;99.90;;;;;;5103901;27;19926;-55
2022/09/23 00:06:26;;;;;;;;;;;1.40;99.90;;;;;;5083813;28;19912;-56
2022/09/23 00:09:06;;;;;;;;;;;1.30;99.90;;;;;;5118534;27;19916;-55
2022/09/23 00:11:46;;;;;;;;;;;1.40;99.90;;;;;;5104558;27;20389;-55
2022/09/23 00:14:26;;;;;;;;;;;1.50;99.90;;;;;;5103760;27;19930;-55
2022/09/23 00:17:06;;;;;;;;;;;1.50;99.90;;;;;;5104314;27;19912;-55
2022/09/23 00:19:47;;;;;;;;;;;1.60;99.90;;;;;;5093285;27;19935;-55
2022/09/23 00:22:27;;;;;;;;;;;1.60;99.90;;;;;;5161903;27;20364;-55
2022/09/23 00:25:08;;;;;;;;;;;1.60;99.90;;;;;;5103827;27;19926;-55
2022/09/23 00:27:48;;;;;;;;;;;1.60;99.90;;;;;;5084350;28;19916;-55
2022/09/23 00:30:28;;;;;;;;;;;1.50;99.90;;;;;;5107912;27;19923;-56
2022/09/23 00:33:08;;;;;;;;;;;1.40;99.90;;;;;;5105125;27;19916;-55
2022/09/23 00:35:48;;;;;;;;;;;1.30;99.90;;;;;;5125159;27;19916;-56
2022/09/23 00:38:29;;;;;;;;;;;1.30;99.90;;;;;;5082983;28;19912;-55
2022/09/23 00:41:28;;;;;;;;;;;1.40;99.90;;;;;;5117532;27;19919;-55
2022/09/23 00:44:22;;;;;;;;;;;1.40;99.90;;;;;;5124471;27;19918;-55
2022/09/23 00:47:02;;;;;;;;;;;1.40;99.90;;;;;;5103527;27;19916;-55
2022/09/23 00:49:43;;;;;;;;;;;1.30;99.90;;;;;;5113434;27;19931;-56
2022/09/23 00:52:24;;;;;;;;;;;1.20;99.90;;;;;;5103662;27;19926;-56
2022/09/23 00:55:06;;;;;;;;;;;1.20;99.90;;;;;;5101488;27;20331;-55
2022/09/23 00:57:47;;;;;;;;;;;1.10;99.90;;;;;;5103292;27;19926;-55
2022/09/23 01:00:28;;;;;;;;;;;1.00;99.90;;;;;;5087544;27;19927;-55
2022/09/23 01:03:08;;;;;;;;;;;0.90;99.90;;;;;;5105345;27;20303;-55
2022/09/23 01:05:48;;;;;;;;;;;0.90;99.90;;;;;;5124645;27;19926;-55
2022/09/23 01:08:27;;;;;;;;;;;1.00;99.90;;;;;;5124308;27;19929;-55
2022/09/23 01:11:13;;;;;;;;;;;1.10;99.90;;;;;;5104203;27;19926;-55
2022/09/23 01:13:59;;;;;;;;;;;1.10;99.90;;;;;;5104557;27;20319;-55
2022/09/23 01:16:43;;;;;;;;;;;1.20;99.90;;;;;;5105214;27;20267;-55
2022/09/23 01:19:31;;;;;;;;;;;1.30;99.90;;;;;;5097294;27;19916;-55
2022/09/23 01:22:14;;;;;;;;;;;1.40;99.90;;;;;;5104403;27;19912;-55
2022/09/23 01:25:07;;;;;;;;;;;1.40;99.90;;;;;;5104301;27;19930;-55
2022/09/23 01:27:56;;;;;;;;;;;1.40;99.90;;;;;;5120203;27;19920;-56
2022/09/23 01:30:45;;;;;;;;;;;1.30;99.90;;;;;;5134210;27;19946;-55
2022/09/23 01:33:32;;;;;;;;;;;1.30;99.90;;;;;;5104890;27;19926;-55
2022/09/23 01:36:18;;;;;;;;;;;1.30;99.90;;;;;;5084510;28;20381;-55
2022/09/23 01:39:01;;;;;;;;;;;1.30;99.90;;;;;;5079223;28;19916;-55
2022/09/23 01:41:48;;;;;;;;;;;1.30;99.90;;;;;;5099828;27;19916;-56
2022/09/23 01:44:32;;;;;;;;;;;1.30;99.90;;;;;;5103790;27;19926;-56
2022/09/23 01:47:16;;;;;;;;;;;1.20;99.90;;;;;;5103511;27;19912;-56
2022/09/23 01:49:59;;;;;;;;;;;1.10;99.90;;;;;;5100992;27;20127;-55
2022/09/23 01:52:40;;;;;;;;;;;1.10;99.90;;;;;;5064428;28;19913;-56
2022/09/23 01:55:24;;;;;;;;;;;1.10;99.90;;;;;;5078850;28;20216;-55
2022/09/23 01:58:07;;;;;;;;;;;1.20;99.90;;;;;;5085062;27;19969;-55
2022/09/23 02:00:51;;;;;;;;;;;1.30;99.90;;;;;;5084014;27;19947;-55
2022/09/23 02:03:34;;;;;;;;;;;1.30;99.90;;;;;;5104322;27;20442;-55
2022/09/23 02:06:28;;;;;;;;;;;1.30;99.90;;;;;;5103969;27;19946;-56
2022/09/23 02:09:11;;;;;;;;;;;1.20;99.90;;;;;;5092444;27;19978;-55
2022/09/23 02:11:53;;;;;;;;;;;1.20;99.90;;;;;;5104091;27;19973;-55
2022/09/23 02:14:37;;;;;;;;;;;1.30;99.90;;;;;;5123857;27;20377;-56
2022/09/23 02:17:23;;;;;;;;;;;1.20;99.90;;;;;;5103443;27;19954;-55
2022/09/23 02:20:05;;;;;;;;;;;1.20;99.90;;;;;;5089920;27;19931;-55
2022/09/23 02:22:49;;;;;;;;;;;1.00;99.90;;;;;;5082968;28;20270;-55
2022/09/23 02:25:32;;;;;;;;;;;1.00;99.90;;;;;;5124430;27;19953;-55
2022/09/23 02:28:16;;;;;;;;;;;1.10;99.90;;;;;;5142316;27;20376;-55
2022/09/23 02:31:00;;;;;;;;;;;1.10;99.90;;;;;;5097447;27;19926;-55
2022/09/23 02:33:43;;;;;;;;;;;1.10;99.90;;;;;;5123924;27;20320;-56
2022/09/23 02:36:25;;;;;;;;;;;1.00;99.90;;;;;;5098417;27;20328;-55
2022/09/23 02:39:12;;;;;;;;;;;1.00;99.90;;;;;;5098176;27;20356;-58
2022/09/23 02:41:56;;;;;;;;;;;1.00;99.90;;;;;;5124221;27;20221;-56
2022/09/23 02:44:36;;;;;;;;;;;0.90;99.90;;;;;;5082413;28;20271;-55
2022/09/23 02:47:17;;;;;;;;;;;0.80;99.90;;;;;;5124140;27;20323;-55
2022/09/23 02:49:57;;;;;;;;;;;0.70;99.90;;;;;;5104336;27;19912;-55
2022/09/23 02:52:37;;;;;;;;;;;0.60;99.90;;;;;;5084900;27;19954;-55
2022/09/23 02:55:19;;;;;;;;;;;0.60;99.90;;;;;;5124421;27;19915;-55
2022/09/23 02:58:00;;;;;;;;;;;0.50;99.90;;;;;;5083088;28;19913;-55
2022/09/23 03:00:44;;;;;;;;;;;0.60;99.90;;;;;;5098983;27;20415;-55
2022/09/23 03:03:30;;;;;;;;;;;0.70;99.90;;;;;;5092288;27;19937;-55
2022/09/23 03:06:14;;;;;;;;;;;0.70;99.90;;;;;;5090122;27;19954;-55
2022/09/23 03:08:57;;;;;;;;;;;0.60;99.90;;;;;;5083221;27;20412;-55
2022/09/23 03:11:38;;;;;;;;;;;0.50;99.90;;;;;;5103113;27;20312;-56
2022/09/23 03:14:24;;;;;;;;;;;0.40;99.90;;;;;;5104499;27;19930;-56
2022/09/23 03:17:11;;;;;;;;;;;0.50;99.90;;;;;;5104930;27;19926;-55
2022/09/23 03:19:55;;;;;;;;;;;0.60;99.90;;;;;;5104756;27;19977;-55
2022/09/23 03:22:38;;;;;;;;;;;0.60;99.90;;;;;;5104399;27;19912;-55
2022/09/23 03:25:21;;;;;;;;;;;0.60;99.90;;;;;;5104392;27;19930;-55
2022/09/23 03:28:02;;;;;;;;;;;0.60;99.90;;;;;;5103750;27;20419;-55
2022/09/23 03:30:43;;;;;;;;;;;0.60;99.90;;;;;;5065320;28;19954;-55
2022/09/23 03:33:26;;;;;;;;;;;0.50;99.90;;;;;;5121071;27;19977;-55
2022/09/23 03:39:08;;;;;;;;;;;0.50;99.90;;;;;;5122541;27;19972;-55
2022/09/23 03:41:50;;;;;;;;;;;0.50;99.90;;;;;;5104165;27;19934;-55
2022/09/23 03:44:30;;;;;;;;;;;0.60;99.90;;;;;;5104356;27;20346;-56
2022/09/23 03:47:11;;;;;;;;;;;0.60;99.90;;;;;;5103323;27;19930;-55
2022/09/23 03:49:51;;;;;;;;;;;0.70;99.90;;;;;;5091772;27;19954;-56
2022/09/23 03:52:32;;;;;;;;;;;0.80;99.90;;;;;;5103763;27;19919;-55
2022/09/23 03:55:12;;;;;;;;;;;0.80;99.90;;;;;;5124130;27;20149;-55
2022/09/23 03:57:52;;;;;;;;;;;0.90;99.90;;;;;;5104449;27;19958;-55
2022/09/23 04:00:34;;;;;;;;;;;1.00;99.90;;;;;;5086869;27;19918;-55
2022/09/23 04:03:14;;;;;;;;;;;1.00;99.90;;;;;;5104814;27;20210;-55
2022/09/23 04:05:54;;;;;;;;;;;1.10;99.90;;;;;;5083986;28;20279;-56
2022/09/23 04:08:34;;;;;;;;;;;1.10;99.90;;;;;;5100198;27;20329;-55
2022/09/23 04:11:14;;;;;;;;;;;1.00;99.90;;;;;;5083294;28;19921;-56
2022/09/23 04:13:54;;;;;;;;;;;1.00;99.90;;;;;;5124032;27;19916;-56
2022/09/23 04:16:35;;;;;;;;;;;0.80;99.90;;;;;;5090278;27;20427;-55
2022/09/23 04:19:15;;;;;;;;;;;0.70;99.90;;;;;;5074768;27;19921;-55
2022/09/23 04:21:55;;;;;;;;;;;0.50;99.90;;;;;;5103791;27;19926;-55
2022/09/23 04:24:35;;;;;;;;;;;0.40;99.90;;;;;;5115566;27;19920;-55
2022/09/23 04:27:14;;;;;;;;;;;0.40;99.90;;;;;;5092595;27;19920;-55
2022/09/23 04:29:54;;;;;;;;;;;0.40;99.90;;;;;;5074577;27;20464;-55
2022/09/23 04:32:34;;;;;;;;;;;0.40;99.90;;;;;;5103377;27;20373;-55
2022/09/23 04:35:14;;;;;;;;;;;0.30;99.90;;;;;;5099245;27;19938;-55
2022/09/23 04:37:54;;;;;;;;;;;0.20;99.90;;;;;;5061791;28;19917;-56
2022/09/23 04:40:35;;;;;;;;;;;0.10;99.90;;;;;;5115267;27;20932;-55
2022/09/23 04:43:15;;;;;;;;;;;0.00;99.90;;;;;;5088102;27;19969;-56
2022/09/23 04:46:02;;;;;;;;;;;-0.10;99.90;;;;;;5080603;27;19930;-55
2022/09/23 04:48:43;;;;;;;;;;;-0.20;99.90;;;;;;5082140;27;19916;-56
2022/09/23 04:51:24;;;;;;;;;;;-0.30;99.90;;;;;;5103534;27;19945;-55
2022/09/23 04:54:04;;;;;;;;;;;-0.30;99.90;;;;;;5084511;27;19920;-55
2022/09/23 04:56:45;;;;;;;;;;;-0.30;99.90;;;;;;5102255;27;19977;-55
2022/09/23 04:59:25;;;;;;;;;;;-0.30;99.90;;;;;;5094209;27;20332;-55
2022/09/23 05:02:05;;;;;;;;;;;-0.40;99.90;;;;;;5103078;27;19916;-56
2022/09/23 05:04:45;;;;;;;;;;;-0.30;99.90;;;;;;5097754;27;19926;-56
2022/09/23 05:07:25;;;;;;;;;;;-0.30;99.90;;;;;;5096115;27;20515;-55
2022/09/23 05:10:05;;;;;;;;;;;-0.20;99.90;;;;;;5060808;28;19922;-56
2022/09/23 05:12:45;;;;;;;;;;;-0.10;99.90;;;;;;5123891;27;19916;-56
2022/09/23 05:15:26;;;;;;;;;;;-0.10;99.90;;;;;;5101875;27;19916;-55
2022/09/23 05:18:05;;;;;;;;;;;-0.10;99.90;;;;;;5102496;27;19958;-55
2022/09/23 05:20:52;;;;;;;;;;;-0.10;99.90;;;;;;5097786;27;19973;-55
2022/09/23 05:23:31;;;;;;;;;;;0.00;99.90;;;;;;5100940;27;19913;-55
2022/09/23 05:26:12;;;;;;;;;;;0.10;99.90;;;;;;5106463;27;19916;-55
2022/09/23 05:28:53;;;;;;;;;;;0.10;99.90;;;;;;5103106;27;19942;-55
2022/09/23 05:31:33;;;;;;;;;;;0.20;99.90;;;;;;5123391;27;19911;-55
2022/09/23 05:34:12;;;;;;;;;;;0.40;99.90;;;;;;5083173;28;19920;-55
2022/09/23 05:36:53;;;;;;;;;;;0.40;99.90;;;;;;5102009;27;20357;-55
2022/09/23 05:39:32;;;;;;;;;;;0.50;99.90;;;;;;5092072;27;19916;-55
2022/09/23 05:42:12;;;;;;;;;;;0.70;99.90;;;;;;5100422;27;19912;-55
2022/09/23 05:44:52;;;;;;;;;;;0.90;99.90;;;;;;5082464;28;19920;-55
2022/09/23 05:47:32;;;;;;;;;;;1.10;99.90;;;;;;5102262;27;19953;-56
2022/09/23 05:50:11;;;;;;;;;;;1.20;99.90;;;;;;5088153;27;19969;-56
2022/09/23 05:52:51;;;;;;;;;;;1.40;99.90;;;;;;5099846;27;20414;-55
2022/09/23 05:55:31;;;;;;;;;;;1.50;99.90;;;;;;5086049;27;19920;-56
2022/09/23 05:58:11;;;;;;;;;;;1.60;99.90;;;;;;5136302;27;20104;-55
2022/09/23 06:00:51;;;;;;;;;;;1.60;99.90;;;;;;5061410;28;19913;-56
2022/09/23 06:03:30;;;;;;;;;;;1.70;99.90;;;;;;5090573;27;20426;-55
2022/09/23 06:06:14;;;;;;;;;;;1.80;99.90;;;;;;5087057;27;20303;-56
2022/09/23 06:08:53;;;;;;;;;;;2.00;99.90;;;;;;5077375;28;20448;-55
2022/09/23 06:11:34;;;;;;;;;;;2.10;99.90;;;;;;5099744;27;20442;-55
2022/09/23 06:14:15;;;;;;;;;;;2.20;99.90;;;;;;5088037;27;19954;-56
2022/09/23 06:16:54;;;;;;;;;;;2.30;99.90;;;;;;5153336;27;19961;-55
2022/09/23 06:19:34;;;;;;;;;;;2.40;99.90;;;;;;5111124;27;20401;-55
2022/09/23 06:22:16;;;;;;;;;;;2.50;99.90;;;;;;5122973;27;19933;-56
2022/09/23 06:24:57;;;;;;;;;;;2.60;99.90;;;;;;5076453;28;20326;-55
2022/09/23 06:27:37;;;;;;;;;;;2.80;99.90;;;;;;5072707;28;19917;-55
2022/09/23 06:30:17;;;;;;;;;;;2.90;99.90;;;;;;5092987;27;19930;-55
2022/09/23 06:32:57;;;;;;;;;;;3.00;99.90;;;;;;5097111;27;19920;-56
2022/09/23 06:35:36;;;;;;;;;;;3.10;99.90;;;;;;5094718;27;19921;-56
2022/09/23 06:38:17;;;;;;;;;;;3.20;99.90;;;;;;5088663;27;19918;-56
2022/09/23 06:40:57;;;;;;;;;;;3.30;99.90;;;;;;5111566;27;19919;-55
2022/09/23 06:43:38;;;;;;;;;;;3.50;99.90;;;;;;5099373;27;19954;-56
2022/09/23 06:46:18;;;;;;;;;;;3.60;99.90;;;;;;5104672;27;19920;-57
2022/09/23 06:49:00;;;;;;;;;;;3.70;99.90;;;;;;5088288;27;19958;-56
2022/09/23 06:51:40;;;;;;;;;;;3.80;99.90;;;;;;5086132;27;20658;-56
2022/09/23 06:54:20;;;;;;;;;;;3.90;99.90;;;;;;5087655;27;19912;-57
2022/09/23 06:57:00;;;;;;;;;;;4.10;99.90;;;;;;5079504;28;19916;-56
2022/09/23 06:59:40;;;;;;;;;;;4.20;99.90;;;;;;5116819;27;19943;-56
2022/09/23 07:02:21;;;;;;;;;;;4.30;99.90;;;;;;5095484;27;19926;-57
2022/09/23 07:05:01;;;;;;;;;;;4.40;99.90;;;;;;5096032;27;19913;-56
2022/09/23 07:07:41;;;;;;;;;;;4.60;99.90;;;;;;5080452;28;19920;-56
2022/09/23 07:10:21;;;;;;;;;;;4.70;99.90;;;;;;5110692;27;19919;-56
2022/09/23 07:13:02;;;;;;;;;;;4.80;99.90;;;;;;5083217;27;20343;-56
2022/09/23 07:15:42;;;;;;;;;;;4.90;99.90;;;;;;5093811;27;19927;-56
2022/09/23 07:18:23;;;;;;;;;;;4.90;99.90;;;;;;5092618;27;19955;-56
2022/09/23 07:21:06;;;;;;;;;;;5.00;99.90;;;;;;5104857;27;20002;-56
2022/09/23 07:23:47;;;;;;;;;;;5.20;99.90;;;;;;5105186;27;19934;-56
2022/09/23 07:26:28;;;;;;;;;;;5.30;99.90;;;;;;5125781;27;19958;-56
2022/09/23 07:29:07;;;;;;;;;;;5.50;99.90;;;;;;5099988;27;20274;-56
2022/09/23 07:31:47;;;;;;;;;;;5.60;99.90;;;;;;5117053;27;20982;-55
2022/09/23 07:34:27;;;;;;;;;;;5.70;99.90;;;;;;5103293;27;19932;-56
2022/09/23 07:37:07;;;;;;;;;;;5.90;99.90;;;;;;5096410;27;19930;-56
2022/09/23 07:39:47;;;;;;;;;;;6.00;99.90;;;;;;5068208;27;19962;-56
2022/09/23 07:42:27;;;;;;;;;;;6.10;99.90;;;;;;5082879;27;19950;-56
2022/09/23 07:45:08;;;;;;;;;;;6.20;99.90;;;;;;5090755;27;19920;-56
2022/09/23 07:47:48;;;;;;;;;;;6.40;99.90;;;;;;5070304;28;20204;-56
2022/09/23 07:50:31;;;;;;;;;;;6.40;99.90;;;;;;5059591;27;19917;-57
2022/09/23 07:53:13;;;;;;;;;;;6.50;99.90;;;;;;5093974;27;19950;-55
2022/09/23 07:55:56;;;;;;;;;;;6.60;99.90;;;;;;5093459;27;19961;-56
2022/09/23 07:58:37;;;;;;;;;;;6.70;99.90;;;;;;5101268;27;19916;-56
2022/09/23 08:01:17;;;;;;;;;;;6.80;99.90;;;;;;5080879;28;19917;-55
2022/09/23 08:03:56;;;;;;;;;;;6.90;99.90;;;;;;5131370;27;20330;-56
2022/09/23 08:06:39;;;;;;;;;;;7.00;99.90;;;;;;5099008;27;19912;-56
2022/09/23 08:09:20;;;;;;;;;;;7.20;99.90;;;;;;5105877;27;20394;-56
2022/09/23 08:12:01;;;;;;;;;;;7.30;99.90;;;;;;5104535;27;19954;-56
2022/09/23 08:14:41;;;;;;;;;;;7.40;99.90;;;;;;5105404;27;19954;-56
2022/09/23 08:17:20;;;;;;;;;;;7.60;99.90;;;;;;5105536;27;20415;-55
2022/09/23 08:20:00;;;;;;;;;;;7.80;99.90;;;;;;5069555;28;19913;-56
2022/09/23 08:22:40;;;;;;;;;;;7.90;99.90;;;;;;5094320;27;19913;-56
2022/09/23 08:25:20;;;;;;;;;;;8.10;99.90;;;;;;5118998;27;19916;-56
2022/09/23 08:28:00;;;;;;;;;;;8.10;99.90;;;;;;5092904;27;19948;-56
2022/09/23 08:30:40;;;;;;;;;;;8.20;99.90;;;;;;5098253;27;19974;-56
2022/09/23 08:33:19;;;;;;;;;;;8.30;99.90;;;;;;5096938;27;20478;-56
2022/09/23 08:36:00;;;;;;;;;;;8.40;99.90;;;;;;5093047;27;19953;-55
2022/09/23 08:38:41;;;;;;;;;;;8.60;99.90;;;;;;5099020;27;19949;-56
2022/09/23 08:41:24;;;;;;;;;;;8.70;99.90;;;;;;5097643;27;20383;-57
2022/09/23 08:44:07;;;;;;;;;;;8.90;99.90;;;;;;5078323;28;20275;-56
2022/09/23 08:46:51;;;;;;;;;;;9.00;99.90;;;;;;5093834;27;19934;-56
2022/09/23 08:49:33;;;;;;;;;;;9.10;99.90;;;;;;5069815;28;19917;-57
2022/09/23 08:52:16;;;;;;;;;;;9.20;99.90;;;;;;5098338;27;19962;-56
2022/09/23 08:54:55;;;;;;;;;;;9.30;99.90;;;;;;5081890;28;19913;-56
2022/09/23 08:57:38;;;;;;;;;;;9.40;99.90;;;;;;5097557;27;19916;-55
2022/09/23 09:00:21;;;;;;;;;;;9.50;99.90;;;;;;5088785;27;19962;-55
2022/09/23 09:03:01;;;;;;;;;;;9.60;99.90;;;;;;5083386;28;19916;-56
2022/09/23 09:05:41;;;;;;;;;;;9.80;99.90;;;;;;5098057;27;19970;-56
2022/09/23 09:08:23;;;;;;;;;;;10.00;99.90;;;;;;5090010;27;20320;-56
2022/09/23 09:11:07;;;;;;;;;;;10.10;99.90;;;;;;5137860;27;19915;-58
2022/09/23 09:13:53;;;;;;;;;;;10.40;99.90;;;;;;5078718;28;19970;-57
2022/09/23 09:16:45;;;;;;;;;;;10.50;99.90;;;;;;5080316;28;19913;-56
2022/09/23 09:19:32;;;;;;;;;;;10.80;99.90;;;;;;5056356;28;19914;-56
2022/09/23 09:22:15;;;;;;;;;;;11.00;99.90;;;;;;5075559;28;19920;-56
2022/09/23 09:24:58;;;;;;;;;;;11.20;99.90;;;;;;5103368;27;19912;-57
2022/09/23 09:27:40;;;;;;;;;;;11.40;99.90;;;;;;5105052;27;19912;-56
2022/09/23 09:30:20;;;;;;;;;;;11.70;99.90;;;;;;5090905;27;19981;-57
2022/09/23 09:33:01;;;;;;;;;;;11.90;99.90;;;;;;5094806;27;20515;-56
2022/09/23 09:35:49;;;;;;;;;;;12.00;99.90;;;;;;5084659;27;19931;-57
2022/09/23 09:38:29;;;;;;;;;;;12.20;99.90;;;;;;5104551;27;19916;-57
2022/09/23 09:41:13;;;;;;;;;;;12.40;99.90;;;;;;5087631;27;19920;-56
2022/09/23 09:43:58;;;;;;;;;;;12.50;99.90;;;;;;5105112;27;19926;-56
2022/09/23 09:46:55;;;;;;;;;;;12.70;99.90;;;;;;5087964;27;19961;-56
2022/09/23 09:49:41;;;;;;;;;;;12.80;99.90;;;;;;5093434;27;19920;-55
2022/09/23 09:52:22;;;;;;;;;;;13.00;99.90;;;;;;5093898;27;19942;-56
2022/09/23 09:55:20;;;;;;;;;;;13.10;99.90;;;;;;5077216;27;19923;-55
2022/09/23 09:58:04;;;;;;;;;;;13.10;99.90;;;;;;5095809;27;19930;-55
2022/09/23 10:00:44;;;;;;;;;;;13.30;99.90;;;;;;5104396;27;19912;-55
2022/09/23 10:03:44;;;;;;;;;;;13.40;99.90;;;;;;5109420;27;19953;-54
2022/09/23 10:06:25;;;;;;;;;;;13.50;99.90;;;;;;5145699;27;19923;-54
2022/09/23 10:09:13;;;;;;;;;;;13.70;99.90;;;;;;5066387;28;19917;-55
2022/09/23 10:12:13;;;;;;;;;;;13.90;99.90;;;;;;5137581;27;19915;-54
2022/09/23 10:14:56;;;;;;;;;;;14.10;99.90;;;;;;5102846;27;19926;-54
2022/09/23 10:17:36;;;;;;;;;;;14.20;99.90;;;;;;5103285;27;19954;-53
2022/09/23 10:20:17;;;;;;;;;;;14.40;99.90;;;;;;5129327;27;19911;-54
2022/09/23 10:22:57;;;;;;;;;;;14.50;99.90;;;;;;5105481;27;19926;-54
2022/09/23 10:25:36;;;;;;;;;;;14.60;99.90;;;;;;5094470;27;19957;-54
2022/09/23 10:28:30;;;;;;;;;;;14.70;99.90;;;;;;5080707;28;19916;-56
2022/09/23 10:31:12;;;;;;;;;;;14.80;99.90;;;;;;5100225;27;19930;-55
2022/09/23 10:33:54;;;;;;;;;;;14.90;99.90;;;;;;5081415;27;19981;-54
2022/09/23 10:36:35;;;;;;;;;;;15.00;99.90;;;;;;5072156;28;19923;-54
2022/09/23 10:48:19;;;;;;;;;;;15.40;99.90;;;;;;5123326;27;19942;-54
2022/09/23 10:51:00;;;;;;;;;;;15.50;99.90;;;;;;5103571;27;20443;-53
2022/09/23 10:53:49;;;;;;;;;;;15.50;99.90;;;;;;5106439;27;19913;-54
2022/09/23 10:56:33;;;;;;;;;;;15.50;99.90;;;;;;5104446;27;20122;-54
2022/09/23 10:59:39;;;;;;;;;;;15.50;99.90;;;;;;5082753;27;20547;-54
2022/09/23 11:02:31;;;;;;;;;;;15.60;99.90;;;;;;5145614;27;19917;-53
2022/09/23 11:05:28;;;;;;;;;;;15.60;99.90;;;;;;5105255;27;19912;-55
2022/09/23 11:08:18;;;;;;;;;;;15.70;99.90;;;;;;5104655;27;19916;-54
2022/09/23 11:11:07;;;;;;;;;;;15.90;99.90;;;;;;5138608;27;19925;-54
2022/09/23 11:13:55;;;;;;;;;;;15.90;99.90;;;;;;5101189;27;19935;-54
2022/09/23 11:16:45;;;;;;;;;;;15.90;99.90;;;;;;5105399;27;19912;-54
2022/09/23 11:19:36;;;;;;;;;;;16.00;99.90;;;;;;5098416;27;20415;-54
2022/09/23 11:22:24;;;;;;;;;;;16.10;99.90;;;;;;5106215;27;19961;-53
2022/09/23 11:25:17;;;;;;;;;;;16.20;96.00;;;;;;5103724;27;19916;-54
2022/09/23 11:28:06;;;;;;;;;;;16.20;93.60;;;;;;5106236;27;19930;-53
2022/09/23 11:30:52;;;;;;;;;;;16.30;95.20;;;;;;5086480;27;19962;-54
2022/09/23 11:33:40;;;;;;;;;;;16.30;96.30;;;;;;5126979;27;19911;-53
2022/09/23 11:36:23;;;;;;;;;;;16.60;97.80;;;;;;5106965;27;19926;-54
2022/09/23 11:39:07;;;;;;;;;;;16.70;93.50;;;;;;5101554;27;19926;-53
2022/09/23 11:41:51;;;;;;;;;;;16.70;93.00;;;;;;5126798;27;19912;-54
2022/09/23 11:44:33;;;;;;;;;;;16.70;91.70;;;;;;5092376;27;19912;-54
2022/09/23 11:47:19;;;;;;;;;;;16.70;94.00;;;;;;5084558;28;19920;-54
2022/09/23 11:50:03;;;;;;;;;;;16.80;95.30;;;;;;5099375;27;19934;-55
2022/09/23 11:52:44;;;;;;;;;;;16.90;92.90;;;;;;5103617;27;20438;-54
2022/09/23 11:55:26;;;;;;;;;;;17.10;93.50;;;;;;5103921;27;20194;-54
2022/09/23 11:58:10;;;;;;;;;;;17.20;86.60;;;;;;5093507;27;20158;-54
2022/09/23 12:00:53;;;;;;;;;;;17.30;86.50;;;;;;5114140;27;19916;-54
2022/09/23 12:03:39;;;;;;;;;;;17.50;81.90;;;;;;5104679;27;19912;-54
2022/09/23 12:06:21;;;;;;;;;;;17.50;79.70;;;;;;5097327;27;19922;-54
2022/09/23 12:09:03;;;;;;;;;;;17.50;83.90;;;;;;5079076;28;19913;-54
2022/09/23 12:11:48;;;;;;;;;;;17.70;77.20;;;;;;5104030;27;19953;-54
2022/09/23 12:14:29;;;;;;;;;;;17.80;73.00;;;;;;5104454;27;19912;-54
2022/09/23 12:17:23;;;;;;;;;;;17.80;75.60;;;;;;5095608;27;19930;-54
2022/09/23 12:20:10;;;;;;;;;;;17.80;73.40;;;;;;5073136;27;19913;-54
2022/09/23 12:22:57;;;;;;;;;;;17.80;72.70;;;;;;5128610;27;19924;-55
2022/09/23 12:25:45;;;;;;;;;;;17.80;77.60;;;;;;5080971;27;19917;-54
2022/09/23 12:28:27;;;;;;;;;;;17.90;70.90;;;;;;5104453;27;19962;-54
2022/09/23 12:31:09;;;;;;;;;;;17.90;70.20;;;;;;5103872;27;19912;-54
2022/09/23 12:33:50;;;;;;;;;;;17.90;75.10;;;;;;5105150;27;19912;-54
2022/09/23 12:36:34;;;;;;;;;;;17.80;67.80;;;;;;5152546;27;19923;-55
2022/09/23 12:39:16;;;;;;;;;;;17.80;68.10;;;;;;5098021;27;19920;-55
2022/09/23 12:41:58;;;;;;;;;;;18.00;69.80;;;;;;5105007;27;19926;-55
2022/09/23 12:44:40;;;;;;;;;;;18.00;67.00;;;;;;5103661;27;20352;-54
2022/09/23 12:47:40;;;;;;;;;;;18.00;68.10;;;;;;5104800;27;20339;-55
2022/09/23 12:50:37;;;;;;;;;;;17.90;65.20;;;;;;5076833;27;19916;-56
2022/09/23 12:53:35;;;;;;;;;;;17.70;68.50;;;;;;5095428;27;20372;-54
2022/09/23 12:56:17;;;;;;;;;;;17.50;69.10;;;;;;5103896;27;19926;-56
2022/09/23 12:59:10;;;;;;;;;;;17.40;67.80;;;;;;5099959;27;19966;-56
2022/09/23 13:01:51;;;;;;;;;;;17.30;70.40;;;;;;5088624;27;19917;-55
2022/09/23 13:07:33;;;;;;;;;;;17.10;68.10;;;;;;5151230;27;20317;-57
2022/09/23 13:10:16;;;;;;;;;;;17.10;69.90;;;;;;5119406;27;19949;-57
2022/09/23 13:12:56;;;;;;;;;;;17.20;67.90;;;;;;5092706;27;20397;-57
2022/09/23 13:15:36;;;;;;;;;;;17.20;68.80;;;;;;5087479;27;19931;-56
2022/09/23 13:18:45;;;;;;;;;;;17.20;69.20;;;;;;5101835;27;19917;-55
2022/09/23 13:21:43;;;;;;;;;;;17.20;65.20;;;;;;5100941;27;19916;-56
2022/09/23 13:24:38;;;;;;;;;;;17.20;66.20;;;;;;5120636;27;20344;-55
2022/09/23 13:27:20;;;;;;;;;;;17.20;70.30;;;;;;5134605;27;20446;-55
2022/09/23 13:30:03;;;;;;;;;;;17.00;68.30;;;;;;5105518;27;19950;-55
2022/09/23 13:32:45;;;;;;;;;;;16.80;75.00;;;;;;5103313;27;19926;-55
2022/09/23 13:35:30;;;;;;;;;;;16.60;68.90;;;;;;5095981;27;19931;-56
2022/09/23 13:38:11;;;;;;;;;;;16.60;68.60;;;;;;5097527;27;19981;-55
2022/09/23 13:40:53;;;;;;;;;;;16.70;72.90;;;;;;5091962;27;19938;-55
2022/09/23 13:43:38;;;;;;;;;;;16.70;64.40;;;;;;5099605;27;20315;-55
2022/09/23 13:46:20;;;;;;;;;;;16.80;70.60;;;;;;5080674;28;19917;-55
2022/09/23 13:49:01;;;;;;;;;;;16.90;71.70;;;;;;5084852;27;19947;-55
2022/09/23 13:51:44;;;;;;;;;;;17.00;72.00;;;;;;5103292;27;19916;-56
2022/09/23 13:54:28;;;;;;;;;;;16.90;71.30;;;;;;5102948;27;19916;-57
2022/09/23 13:57:23;;;;;;;;;;;16.80;68.00;;;;;;5086676;27;19950;-56
2022/09/23 14:00:16;;;;;;;;;;;16.70;68.60;;;;;;5101658;27;19957;-56
2022/09/23 14:02:56;;;;;;;;;;;16.60;72.70;;;;;;5125743;27;19916;-58
2022/09/23 14:05:35;;;;;;;;;;;16.60;73.60;;;;;;5103605;27;19930;-57
2022/09/23 14:08:15;;;;;;;;;;;16.60;72.70;;;;;;5105334;27;19961;-57
2022/09/23 14:10:56;;;;;;;;;;;16.70;72.00;;;;;;5057845;28;20418;-56
2022/09/23 14:13:40;;;;;;;;;;;16.60;72.10;;;;;;5121236;27;19916;-56
2022/09/23 14:16:20;;;;;;;;;;;16.50;72.80;;;;;;5095113;27;19912;-57
2022/09/23 14:19:00;;;;;;;;;;;16.30;69.10;;;;;;5087922;27;19954;-57
2022/09/23 14:21:41;;;;;;;;;;;16.00;75.80;;;;;;5117927;27;19938;-56
2022/09/23 14:24:23;;;;;;;;;;;15.80;77.40;;;;;;5100153;27;19953;-57
2022/09/23 14:27:13;;;;;;;;;;;15.60;75.30;;;;;;5058973;28;19921;-56
2022/09/23 14:29:53;;;;;;;;;;;15.50;77.20;;;;;;5122958;27;19919;-56
2022/09/23 14:32:33;;;;;;;;;;;15.40;78.60;;;;;;5102026;27;20415;-56
2022/09/23 14:35:18;;;;;;;;;;;15.40;78.90;;;;;;5135345;27;19912;-56
2022/09/23 14:41:14;;;;;;;;;;;15.40;82.40;;;;;;5137815;22;19899;-57
2022/09/23 14:43:56;;;;;;;;;;;15.40;82.90;;;;;;5096826;27;19920;-58
2022/09/23 14:46:37;;;;;;;;;;;15.30;77.20;;;;;;5109509;27;20364;-55
2022/09/23 14:49:17;;;;;;;;;;;15.30;80.40;;;;;;5083416;27;19934;-57
2022/09/23 14:51:57;;;;;;;;;;;15.20;82.20;;;;;;5085128;27;19951;-57
2022/09/23 14:54:41;;;;;;;;;;;15.20;81.40;;;;;;5087962;27;19934;-56
2022/09/23 14:57:28;;;;;;;;;;;15.10;90.80;;;;;;5096961;27;20430;-56
2022/09/23 15:00:14;;;;;;;;;;;15.00;92.90;;;;;;5120626;27;19953;-59
2022/09/23 15:02:59;;;;;;;;;;;14.90;90.30;;;;;;5082563;28;20176;-60
2022/09/23 15:05:42;;;;;;;;;;;14.90;80.20;;;;;;5102572;27;19930;-58
2022/09/23 15:08:24;;;;;;;;;;;15.00;80.80;;;;;;5101832;27;19930;-58
2022/09/23 15:11:05;;;;;;;;;;;15.10;88.80;;;;;;5095390;27;19950;-56
2022/09/23 15:13:48;;;;;;;;;;;15.20;81.40;;;;;;5100675;27;19920;-58
2022/09/23 15:16:29;;;;;;;;;;;15.20;90.00;;;;;;5087584;27;19934;-59
2022/09/23 15:19:15;;;;;;;;;;;15.20;78.30;;;;;;5085011;27;19916;-59
2022/09/23 15:21:55;;;;;;;;;;;15.20;83.80;;;;;;5090815;27;19913;-60
2022/09/23 15:24:36;;;;;;;;;;;15.10;84.90;;;;;;5099909;27;19912;-58
2022/09/23 15:27:27;;;;;;;;;;;15.00;81.10;;;;;;5104994;27;19912;-55
2022/09/23 15:30:14;;;;;;;;;;;14.80;79.30;;;;;;5104562;27;19953;-59
2022/09/23 15:32:55;;;;;;;;;;;14.70;82.30;;;;;;5096043;27;19966;-58
2022/09/23 15:35:35;;;;;;;;;;;14.80;75.60;;;;;;5083617;28;20270;-57
2022/09/23 15:38:17;;;;;;;;;;;14.70;79.50;;;;;;5105344;27;19928;-59
2022/09/23 15:40:57;;;;;;;;;;;14.60;82.50;;;;;;5084417;27;19921;-59
2022/09/23 15:43:39;;;;;;;;;;;14.40;85.70;;;;;;5084100;28;19920;-57
2022/09/23 15:46:20;;;;;;;;;;;14.30;90.20;;;;;;5102870;27;19953;-57
2022/09/23 15:49:01;;;;;;;;;;;14.30;85.80;;;;;;5102797;27;19916;-55
2022/09/23 15:51:42;;;;;;;;;;;14.20;84.80;;;;;;5095016;27;20131;-56
2022/09/23 15:54:21;;;;;;;;;;;14.20;81.20;;;;;;5102832;27;19930;-58
2022/09/23 15:57:01;;;;;;;;;;;14.20;82.30;;;;;;5126075;27;19911;-58
2022/09/23 15:59:41;;;;;;;;;;;14.10;80.50;;;;;;5104864;27;19930;-57
2022/09/23 16:02:23;;;;;;;;;;;14.10;81.20;;;;;;5102704;27;20489;-58
2022/09/23 16:05:06;;;;;;;;;;;14.10;83.70;;;;;;5105103;27;19953;-55
2022/09/23 16:07:47;;;;;;;;;;;14.00;85.00;;;;;;5105571;27;19926;-58
2022/09/23 16:10:27;;;;;;;;;;;13.90;86.40;;;;;;5104525;27;19954;-59
2022/09/23 16:13:10;;;;;;;;;;;13.70;91.20;;;;;;5104779;27;20323;-56